sensor_id;sensor_type;location;lat;lon;timestamp;temperature;humidity
49385;DHT22;36795;45.028;38.968;2022-12-07T00:00:23;2.20;67.20
49385;DHT22;36795;45.028;38.968;2022-12-07T00:03:09;2.10;67.30
49385;DHT22;36795;45.028;38.968;2022-12-07T00:05:58;2.20;67.50
49385;DHT22;36795;45.028;38.968;2022-12-07T00:08:45;2.20;67.30
49385;DHT22;36795;45.028;38.968;2022-12-07T00:11:31;2.20;67.20
49385;DHT22;36795;45.028;38.968;2022-12-07T00:14:18;2.30;67.20
49385;DHT22;36795;45.028;38.968;2022-12-07T00:17:04;2.40;66.90
49385;DHT22;36795;45.028;38.968;2022-12-07T00:19:50;2.40;66.80
49385;DHT22;36795;45.028;38.968;2022-12-07T00:22:36;2.30;66.80
49385;DHT22;36795;45.028;38.968;2022-12-07T00:25:22;2.20;66.90
49385;DHT22;36795;45.028;38.968;2022-12-07T00:28:08;2.20;67.00
49385;DHT22;36795;45.028;38.968;2022-12-07T00:31:02;2.20;67.00
49385;DHT22;36795;45.028;38.968;2022-12-07T00:33:47;2.10;67.10
49385;DHT22;36795;45.028;38.968;2022-12-07T00:36:34;2.10;67.20
49385;DHT22;36795;45.028;38.968;2022-12-07T00:39:20;2.10;67.10
49385;DHT22;36795;45.028;38.968;2022-12-07T00:42:07;2.10;67.10
49385;DHT22;36795;45.028;38.968;2022-12-07T00:44:52;2.10;67.20
49385;DHT22;36795;45.028;38.968;2022-12-07T00:47:39;2.10;67.30
49385;DHT22;36795;45.028;38.968;2022-12-07T00:50:25;2.10;67.20
49385;DHT22;36795;45.028;38.968;2022-12-07T00:53:11;2.00;67.30
49385;DHT22;36795;45.028;38.968;2022-12-07T00:55:57;2.00;68.00
49385;DHT22;36795;45.028;38.968;2022-12-07T00:58:43;2.00;67.40
49385;DHT22;36795;45.028;38.968;2022-12-07T01:01:32;2.00;67.50
49385;DHT22;36795;45.028;38.968;2022-12-07T01:04:18;2.00;67.30
49385;DHT22;36795;45.028;38.968;2022-12-07T01:07:04;2.00;67.30
49385;DHT22;36795;45.028;38.968;2022-12-07T01:09:50;2.00;67.50
49385;DHT22;36795;45.028;38.968;2022-12-07T01:12:36;2.00;67.50
49385;DHT22;36795;45.028;38.968;2022-12-07T01:15:23;2.00;67.50
49385;DHT22;36795;45.028;38.968;2022-12-07T01:18:08;1.90;67.50
49385;DHT22;36795;45.028;38.968;2022-12-07T01:21:13;1.90;67.80
49385;DHT22;36795;45.028;38.968;2022-12-07T01:23:59;1.90;68.50
49385;DHT22;36795;45.028;38.968;2022-12-07T01:26:45;1.80;68.00
49385;DHT22;36795;45.028;38.968;2022-12-07T01:29:34;1.80;68.10
49385;DHT22;36795;45.028;38.968;2022-12-07T01:32:20;1.80;68.00
49385;DHT22;36795;45.028;38.968;2022-12-07T01:35:07;1.70;68.10
49385;DHT22;36795;45.028;38.968;2022-12-07T01:37:54;1.60;68.40
49385;DHT22;36795;45.028;38.968;2022-12-07T01:40:39;1.60;68.70
49385;DHT22;36795;45.028;38.968;2022-12-07T01:43:27;1.70;68.70
49385;DHT22;36795;45.028;38.968;2022-12-07T01:46:13;1.60;68.60
49385;DHT22;36795;45.028;38.968;2022-12-07T01:49:00;1.60;68.70
49385;DHT22;36795;45.028;38.968;2022-12-07T01:51:47;1.70;68.60
49385;DHT22;36795;45.028;38.968;2022-12-07T01:54:36;1.80;68.40
49385;DHT22;36795;45.028;38.968;2022-12-07T01:57:22;1.80;68.10
49385;DHT22;36795;45.028;38.968;2022-12-07T02:00:10;1.80;68.10
49385;DHT22;36795;45.028;38.968;2022-12-07T02:03:05;1.80;68.10
49385;DHT22;36795;45.028;38.968;2022-12-07T02:05:56;1.90;67.90
49385;DHT22;36795;45.028;38.968;2022-12-07T02:08:45;1.90;67.60
49385;DHT22;36795;45.028;38.968;2022-12-07T02:11:32;1.90;67.50
49385;DHT22;36795;45.028;38.968;2022-12-07T02:14:18;1.90;67.30
49385;DHT22;36795;45.028;38.968;2022-12-07T02:17:25;1.80;67.50
49385;DHT22;36795;45.028;38.968;2022-12-07T02:20:33;1.90;67.60
49385;DHT22;36795;45.028;38.968;2022-12-07T02:35:43;1.80;66.90
49385;DHT22;36795;45.028;38.968;2022-12-07T02:44:21;1.70;67.60
49385;DHT22;36795;45.028;38.968;2022-12-07T02:47:12;1.70;67.10
49385;DHT22;36795;45.028;38.968;2022-12-07T02:50:01;1.70;66.90
49385;DHT22;36795;45.028;38.968;2022-12-07T02:52:48;1.80;66.90
49385;DHT22;36795;45.028;38.968;2022-12-07T02:55:38;1.80;66.90
49385;DHT22;36795;45.028;38.968;2022-12-07T02:59:02;1.80;66.60
49385;DHT22;36795;45.028;38.968;2022-12-07T03:09:03;1.70;66.50
49385;DHT22;36795;45.028;38.968;2022-12-07T03:12:32;1.70;66.70
49385;DHT22;36795;45.028;38.968;2022-12-07T03:15:27;1.70;66.80
49385;DHT22;36795;45.028;38.968;2022-12-07T03:18:19;1.70;66.80
49385;DHT22;36795;45.028;38.968;2022-12-07T03:21:13;1.70;66.70
49385;DHT22;36795;45.028;38.968;2022-12-07T03:24:15;1.80;66.70
49385;DHT22;36795;45.028;38.968;2022-12-07T03:27:11;1.80;66.60
49385;DHT22;36795;45.028;38.968;2022-12-07T03:30:20;1.80;66.50
49385;DHT22;36795;45.028;38.968;2022-12-07T03:33:17;1.60;66.40
49385;DHT22;36795;45.028;38.968;2022-12-07T03:36:47;1.50;66.90
49385;DHT22;36795;45.028;38.968;2022-12-07T03:39:41;1.60;66.90
49385;DHT22;36795;45.028;38.968;2022-12-07T03:42:33;1.60;66.80
49385;DHT22;36795;45.028;38.968;2022-12-07T03:45:23;1.60;66.80
49385;DHT22;36795;45.028;38.968;2022-12-07T03:48:28;1.70;66.70
49385;DHT22;36795;45.028;38.968;2022-12-07T03:51:22;1.60;66.50
49385;DHT22;36795;45.028;38.968;2022-12-07T03:54:30;1.40;66.80
49385;DHT22;36795;45.028;38.968;2022-12-07T03:57:19;1.30;67.20
49385;DHT22;36795;45.028;38.968;2022-12-07T04:00:08;1.20;67.50
49385;DHT22;36795;45.028;38.968;2022-12-07T04:02:57;1.30;67.50
49385;DHT22;36795;45.028;38.968;2022-12-07T04:05:44;1.30;67.40
49385;DHT22;36795;45.028;38.968;2022-12-07T04:08:30;1.40;67.30
49385;DHT22;36795;45.028;38.968;2022-12-07T04:11:16;1.30;67.30
49385;DHT22;36795;45.028;38.968;2022-12-07T04:14:02;1.30;67.30
49385;DHT22;36795;45.028;38.968;2022-12-07T04:17:06;1.30;67.30
49385;DHT22;36795;45.028;38.968;2022-12-07T04:19:52;1.20;68.20
49385;DHT22;36795;45.028;38.968;2022-12-07T04:22:38;1.30;67.70
49385;DHT22;36795;45.028;38.968;2022-12-07T04:25:24;1.30;67.50
49385;DHT22;36795;45.028;38.968;2022-12-07T04:28:10;1.40;67.40
49385;DHT22;36795;45.028;38.968;2022-12-07T04:30:56;1.50;67.30
49385;DHT22;36795;45.028;38.968;2022-12-07T04:33:42;1.50;67.20
49385;DHT22;36795;45.028;38.968;2022-12-07T04:36:28;1.50;67.10
49385;DHT22;36795;45.028;38.968;2022-12-07T04:39:23;1.40;67.00
49385;DHT22;36795;45.028;38.968;2022-12-07T04:42:09;1.40;67.30
49385;DHT22;36795;45.028;38.968;2022-12-07T04:44:55;1.50;67.20
49385;DHT22;36795;45.028;38.968;2022-12-07T04:47:41;1.60;67.00
49385;DHT22;36795;45.028;38.968;2022-12-07T04:50:28;1.60;66.90
49385;DHT22;36795;45.028;38.968;2022-12-07T04:53:13;1.50;66.90
49385;DHT22;36795;45.028;38.968;2022-12-07T04:56:00;1.50;67.10
49385;DHT22;36795;45.028;38.968;2022-12-07T04:58:47;1.50;67.20
49385;DHT22;36795;45.028;38.968;2022-12-07T05:01:34;1.50;67.10
49385;DHT22;36795;45.028;38.968;2022-12-07T05:04:20;1.50;67.30
49385;DHT22;36795;45.028;38.968;2022-12-07T05:07:06;1.50;67.40
49385;DHT22;36795;45.028;38.968;2022-12-07T05:09:51;1.50;67.30
49385;DHT22;36795;45.028;38.968;2022-12-07T05:12:37;1.60;67.20
49385;DHT22;36795;45.028;38.968;2022-12-07T05:15:23;1.60;67.20
49385;DHT22;36795;45.028;38.968;2022-12-07T05:18:10;1.70;67.80
49385;DHT22;36795;45.028;38.968;2022-12-07T05:20:58;1.70;68.00
49385;DHT22;36795;45.028;38.968;2022-12-07T05:23:45;1.90;68.10
49385;DHT22;36795;45.028;38.968;2022-12-07T05:26:31;1.90;67.90
49385;DHT22;36795;45.028;38.968;2022-12-07T05:29:18;2.00;67.90
49385;DHT22;36795;45.028;38.968;2022-12-07T05:32:04;2.00;67.90
49385;DHT22;36795;45.028;38.968;2022-12-07T05:34:51;2.00;68.00
49385;DHT22;36795;45.028;38.968;2022-12-07T05:37:37;2.00;68.10
49385;DHT22;36795;45.028;38.968;2022-12-07T05:40:23;2.00;68.00
49385;DHT22;36795;45.028;38.968;2022-12-07T05:43:09;2.00;68.10
49385;DHT22;36795;45.028;38.968;2022-12-07T05:45:56;2.00;68.10
49385;DHT22;36795;45.028;38.968;2022-12-07T05:48:42;2.00;68.00
49385;DHT22;36795;45.028;38.968;2022-12-07T05:51:28;1.90;67.90
49385;DHT22;36795;45.028;38.968;2022-12-07T05:54:14;1.90;68.20
49385;DHT22;36795;45.028;38.968;2022-12-07T05:57:00;2.00;68.10
49385;DHT22;36795;45.028;38.968;2022-12-07T05:59:46;2.10;67.90
49385;DHT22;36795;45.028;38.968;2022-12-07T06:02:33;2.10;67.70
49385;DHT22;36795;45.028;38.968;2022-12-07T06:05:19;2.20;67.70
49385;DHT22;36795;45.028;38.968;2022-12-07T06:08:05;2.20;67.50
49385;DHT22;36795;45.028;38.968;2022-12-07T06:10:51;2.30;67.40
49385;DHT22;36795;45.028;38.968;2022-12-07T06:13:57;2.30;67.30
49385;DHT22;36795;45.028;38.968;2022-12-07T06:16:43;2.30;67.10
49385;DHT22;36795;45.028;38.968;2022-12-07T06:19:29;2.20;66.80
49385;DHT22;36795;45.028;38.968;2022-12-07T06:22:16;2.20;66.80
49385;DHT22;36795;45.028;38.968;2022-12-07T06:25:02;2.20;67.00
49385;DHT22;36795;45.028;38.968;2022-12-07T06:27:49;2.20;66.60
49385;DHT22;36795;45.028;38.968;2022-12-07T06:30:35;2.20;66.60
49385;DHT22;36795;45.028;38.968;2022-12-07T06:33:21;2.20;66.80
49385;DHT22;36795;45.028;38.968;2022-12-07T06:36:07;2.20;66.70
49385;DHT22;36795;45.028;38.968;2022-12-07T06:38:54;2.20;66.70
49385;DHT22;36795;45.028;38.968;2022-12-07T06:41:40;2.20;66.60
49385;DHT22;36795;45.028;38.968;2022-12-07T06:44:26;2.30;66.70
49385;DHT22;36795;45.028;38.968;2022-12-07T06:47:12;2.30;66.60
49385;DHT22;36795;45.028;38.968;2022-12-07T06:50:00;2.30;66.90
49385;DHT22;36795;45.028;38.968;2022-12-07T06:52:51;2.40;66.80
49385;DHT22;36795;45.028;38.968;2022-12-07T06:55:37;2.50;67.00
49385;DHT22;36795;45.028;38.968;2022-12-07T06:58:23;2.50;67.30
49385;DHT22;36795;45.028;38.968;2022-12-07T07:01:15;2.50;67.60
49385;DHT22;36795;45.028;38.968;2022-12-07T07:04:01;2.50;68.40
49385;DHT22;36795;45.028;38.968;2022-12-07T07:06:49;2.50;68.60
49385;DHT22;36795;45.028;38.968;2022-12-07T07:09:39;2.40;69.00
49385;DHT22;36795;45.028;38.968;2022-12-07T07:12:27;2.40;69.50
49385;DHT22;36795;45.028;38.968;2022-12-07T07:15:12;2.30;69.70
49385;DHT22;36795;45.028;38.968;2022-12-07T07:18:00;2.30;70.10
49385;DHT22;36795;45.028;38.968;2022-12-07T07:20:46;2.40;70.50
49385;DHT22;36795;45.028;38.968;2022-12-07T07:23:33;2.60;70.60
49385;DHT22;36795;45.028;38.968;2022-12-07T07:26:25;2.80;70.60
49385;DHT22;36795;45.028;38.968;2022-12-07T07:29:48;2.90;70.50
49385;DHT22;36795;45.028;38.968;2022-12-07T07:33:05;3.10;70.00
49385;DHT22;36795;45.028;38.968;2022-12-07T07:36:01;3.10;69.70
49385;DHT22;36795;45.028;38.968;2022-12-07T07:38:47;3.10;69.80
49385;DHT22;36795;45.028;38.968;2022-12-07T07:41:33;3.00;70.20
49385;DHT22;36795;45.028;38.968;2022-12-07T07:44:21;3.10;70.30
49385;DHT22;36795;45.028;38.968;2022-12-07T07:47:07;3.00;70.20
49385;DHT22;36795;45.028;38.968;2022-12-07T07:49:53;3.00;70.30
49385;DHT22;36795;45.028;38.968;2022-12-07T07:52:40;3.00;70.30
49385;DHT22;36795;45.028;38.968;2022-12-07T07:55:25;3.10;69.90
49385;DHT22;36795;45.028;38.968;2022-12-07T07:58:12;3.20;69.90
49385;DHT22;36795;45.028;38.968;2022-12-07T08:01:04;3.20;69.60
49385;DHT22;36795;45.028;38.968;2022-12-07T08:03:51;3.30;69.70
49385;DHT22;36795;45.028;38.968;2022-12-07T08:06:36;3.30;69.60
49385;DHT22;36795;45.028;38.968;2022-12-07T08:09:23;3.30;69.40
49385;DHT22;36795;45.028;38.968;2022-12-07T08:12:09;3.40;69.40
49385;DHT22;36795;45.028;38.968;2022-12-07T08:14:55;3.50;69.20
49385;DHT22;36795;45.028;38.968;2022-12-07T08:17:41;3.60;69.00
49385;DHT22;36795;45.028;38.968;2022-12-07T08:20:30;3.60;68.70
49385;DHT22;36795;45.028;38.968;2022-12-07T08:23:16;3.50;68.80
49385;DHT22;36795;45.028;38.968;2022-12-07T08:26:04;3.60;69.00
49385;DHT22;36795;45.028;38.968;2022-12-07T08:28:52;3.80;68.80
49385;DHT22;36795;45.028;38.968;2022-12-07T08:31:38;4.80;68.20
49385;DHT22;36795;45.028;38.968;2022-12-07T08:34:24;6.00;65.40
49385;DHT22;36795;45.028;38.968;2022-12-07T08:37:11;7.00;62.50
49385;DHT22;36795;45.028;38.968;2022-12-07T08:39:57;7.60;60.70
49385;DHT22;36795;45.028;38.968;2022-12-07T08:42:49;8.30;58.80
49385;DHT22;36795;45.028;38.968;2022-12-07T08:45:35;8.30;57.70
49385;DHT22;36795;45.028;38.968;2022-12-07T08:48:21;7.50;57.70
49385;DHT22;36795;45.028;38.968;2022-12-07T08:51:09;6.90;59.30
49385;DHT22;36795;45.028;38.968;2022-12-07T08:53:58;6.30;60.40
49385;DHT22;36795;45.028;38.968;2022-12-07T08:56:47;6.60;62.30
49385;DHT22;36795;45.028;38.968;2022-12-07T08:59:36;9.60;57.10
49385;DHT22;36795;45.028;38.968;2022-12-07T09:02:23;12.10;51.50
49385;DHT22;36795;45.028;38.968;2022-12-07T09:05:10;13.60;48.00
49385;DHT22;36795;45.028;38.968;2022-12-07T09:08:00;12.80;46.70
49385;DHT22;36795;45.028;38.968;2022-12-07T09:10:47;11.90;48.90
49385;DHT22;36795;45.028;38.968;2022-12-07T09:13:33;11.90;48.90
49385;DHT22;36795;45.028;38.968;2022-12-07T09:16:19;11.40;48.80
49385;DHT22;36795;45.028;38.968;2022-12-07T09:19:08;11.20;49.80
49385;DHT22;36795;45.028;38.968;2022-12-07T09:21:55;11.30;49.60
49385;DHT22;36795;45.028;38.968;2022-12-07T09:24:40;10.40;50.40
49385;DHT22;36795;45.028;38.968;2022-12-07T09:27:27;10.60;51.00
49385;DHT22;36795;45.028;38.968;2022-12-07T09:30:13;10.60;50.60
49385;DHT22;36795;45.028;38.968;2022-12-07T09:32:59;10.20;50.80
49385;DHT22;36795;45.028;38.968;2022-12-07T09:35:46;9.70;51.50
49385;DHT22;36795;45.028;38.968;2022-12-07T09:38:32;9.30;52.50
49385;DHT22;36795;45.028;38.968;2022-12-07T09:41:19;9.00;53.20
49385;DHT22;36795;45.028;38.968;2022-12-07T09:44:09;8.50;53.90
49385;DHT22;36795;45.028;38.968;2022-12-07T09:46:57;8.20;54.50
49385;DHT22;36795;45.028;38.968;2022-12-07T09:49:45;8.00;55.10
49385;DHT22;36795;45.028;38.968;2022-12-07T09:52:31;8.00;55.30
49385;DHT22;36795;45.028;38.968;2022-12-07T09:55:27;8.30;55.30
49385;DHT22;36795;45.028;38.968;2022-12-07T09:58:33;8.80;54.60
49385;DHT22;36795;45.028;38.968;2022-12-07T10:01:21;9.30;53.10
49385;DHT22;36795;45.028;38.968;2022-12-07T10:04:15;9.00;52.30
49385;DHT22;36795;45.028;38.968;2022-12-07T10:07:02;8.70;53.40
49385;DHT22;36795;45.028;38.968;2022-12-07T10:09:49;8.70;53.70
49385;DHT22;36795;45.028;38.968;2022-12-07T10:13:14;9.10;53.30
49385;DHT22;36795;45.028;38.968;2022-12-07T10:16:01;9.10;52.10
49385;DHT22;36795;45.028;38.968;2022-12-07T10:18:48;8.40;53.30
49385;DHT22;36795;45.028;38.968;2022-12-07T10:21:34;8.20;54.40
49385;DHT22;36795;45.028;38.968;2022-12-07T10:24:22;8.40;54.50
49385;DHT22;36795;45.028;38.968;2022-12-07T10:27:31;8.30;54.20
49385;DHT22;36795;45.028;38.968;2022-12-07T10:30:17;8.10;54.80
49385;DHT22;36795;45.028;38.968;2022-12-07T10:33:33;8.20;55.20
49385;DHT22;36795;45.028;38.968;2022-12-07T10:36:25;8.40;54.90
49385;DHT22;36795;45.028;38.968;2022-12-07T10:39:24;8.60;54.30
49385;DHT22;36795;45.028;38.968;2022-12-07T10:42:30;8.60;54.50
49385;DHT22;36795;45.028;38.968;2022-12-07T10:45:18;9.10;54.10
49385;DHT22;36795;45.028;38.968;2022-12-07T10:48:26;10.10;51.80
49385;DHT22;36795;45.028;38.968;2022-12-07T10:51:28;10.30;50.30
49385;DHT22;36795;45.028;38.968;2022-12-07T11:04:38;8.70;54.00
49385;DHT22;36795;45.028;38.968;2022-12-07T11:10:55;8.30;55.70
49385;DHT22;36795;45.028;38.968;2022-12-07T11:13:52;8.20;55.60
49385;DHT22;36795;45.028;38.968;2022-12-07T11:23:11;8.20;57.40
49385;DHT22;36795;45.028;38.968;2022-12-07T11:38:55;9.10;54.60
49385;DHT22;36795;45.028;38.968;2022-12-07T11:41:51;9.50;54.00
49385;DHT22;36795;45.028;38.968;2022-12-07T11:44:50;9.60;53.40
49385;DHT22;36795;45.028;38.968;2022-12-07T11:47:59;9.60;53.00
49385;DHT22;36795;45.028;38.968;2022-12-07T11:50:56;9.60;53.30
49385;DHT22;36795;45.028;38.968;2022-12-07T11:56:41;9.40;53.00
49385;DHT22;36795;45.028;38.968;2022-12-07T11:59:38;9.40;53.40
49385;DHT22;36795;45.028;38.968;2022-12-07T12:02:32;9.20;53.50
49385;DHT22;36795;45.028;38.968;2022-12-07T12:05:24;8.90;53.80
49385;DHT22;36795;45.028;38.968;2022-12-07T12:08:18;8.70;54.30
49385;DHT22;36795;45.028;38.968;2022-12-07T12:14:23;7.90;55.70
49385;DHT22;36795;45.028;38.968;2022-12-07T12:17:50;7.70;56.60
49385;DHT22;36795;45.028;38.968;2022-12-07T12:20:57;7.60;57.10
49385;DHT22;36795;45.028;38.968;2022-12-07T12:26:52;7.40;57.80
49385;DHT22;36795;45.028;38.968;2022-12-07T12:29:41;7.30;58.00
49385;DHT22;36795;45.028;38.968;2022-12-07T12:32:49;7.30;58.50
49385;DHT22;36795;45.028;38.968;2022-12-07T12:35:36;7.20;58.70
49385;DHT22;36795;45.028;38.968;2022-12-07T12:38:32;7.10;58.90
49385;DHT22;36795;45.028;38.968;2022-12-07T12:41:55;7.10;59.20
49385;DHT22;36795;45.028;38.968;2022-12-07T12:45:02;7.00;59.90
49385;DHT22;36795;45.028;38.968;2022-12-07T12:47:55;6.80;59.90
49385;DHT22;36795;45.028;38.968;2022-12-07T12:50:42;6.70;60.30
49385;DHT22;36795;45.028;38.968;2022-12-07T12:53:28;6.60;61.30
49385;DHT22;36795;45.028;38.968;2022-12-07T12:56:33;6.50;61.10
49385;DHT22;36795;45.028;38.968;2022-12-07T12:59:24;6.50;62.10
49385;DHT22;36795;45.028;38.968;2022-12-07T13:05:30;6.40;61.80
49385;DHT22;36795;45.028;38.968;2022-12-07T13:08:22;6.40;62.20
49385;DHT22;36795;45.028;38.968;2022-12-07T13:20:44;6.20;63.20
49385;DHT22;36795;45.028;38.968;2022-12-07T13:29:21;6.00;63.80
49385;DHT22;36795;45.028;38.968;2022-12-07T13:32:24;6.00;63.90
49385;DHT22;36795;45.028;38.968;2022-12-07T13:35:34;6.00;63.90
49385;DHT22;36795;45.028;38.968;2022-12-07T13:38:32;6.00;64.10
49385;DHT22;36795;45.028;38.968;2022-12-07T13:41:29;5.90;64.10
49385;DHT22;36795;45.028;38.968;2022-12-07T13:44:16;5.90;64.50
49385;DHT22;36795;45.028;38.968;2022-12-07T13:50:23;5.80;65.10
49385;DHT22;36795;45.028;38.968;2022-12-07T13:53:13;5.80;65.30
49385;DHT22;36795;45.028;38.968;2022-12-07T13:56:01;5.70;65.50
49385;DHT22;36795;45.028;38.968;2022-12-07T13:58:48;5.70;65.60
49385;DHT22;36795;45.028;38.968;2022-12-07T14:01:34;5.70;65.70
49385;DHT22;36795;45.028;38.968;2022-12-07T14:04:32;5.70;65.80
49385;DHT22;36795;45.028;38.968;2022-12-07T14:07:28;5.70;66.00
49385;DHT22;36795;45.028;38.968;2022-12-07T14:10:30;5.70;66.00
49385;DHT22;36795;45.028;38.968;2022-12-07T14:13:33;5.70;66.10
49385;DHT22;36795;45.028;38.968;2022-12-07T14:16:35;5.70;66.20
49385;DHT22;36795;45.028;38.968;2022-12-07T14:22:37;5.70;66.20
49385;DHT22;36795;45.028;38.968;2022-12-07T14:25:27;5.80;66.30
49385;DHT22;36795;45.028;38.968;2022-12-07T14:28:28;5.80;66.30
49385;DHT22;36795;45.028;38.968;2022-12-07T14:31:16;5.80;66.20
49385;DHT22;36795;45.028;38.968;2022-12-07T14:34:03;5.80;66.30
49385;DHT22;36795;45.028;38.968;2022-12-07T14:36:49;5.80;66.30
49385;DHT22;36795;45.028;38.968;2022-12-07T14:39:35;5.80;66.30
49385;DHT22;36795;45.028;38.968;2022-12-07T14:42:24;5.80;66.40
49385;DHT22;36795;45.028;38.968;2022-12-07T14:45:20;5.80;66.50
49385;DHT22;36795;45.028;38.968;2022-12-07T14:48:07;5.80;66.60
49385;DHT22;36795;45.028;38.968;2022-12-07T14:50:56;5.80;66.70
49385;DHT22;36795;45.028;38.968;2022-12-07T14:53:50;5.80;66.80
49385;DHT22;36795;45.028;38.968;2022-12-07T14:56:38;5.80;66.80
49385;DHT22;36795;45.028;38.968;2022-12-07T14:59:24;5.80;66.90
49385;DHT22;36795;45.028;38.968;2022-12-07T15:02:15;5.80;66.80
49385;DHT22;36795;45.028;38.968;2022-12-07T15:05:02;5.90;66.90
49385;DHT22;36795;45.028;38.968;2022-12-07T15:07:49;5.90;66.80
49385;DHT22;36795;45.028;38.968;2022-12-07T15:10:34;5.90;66.80
49385;DHT22;36795;45.028;38.968;2022-12-07T15:13:24;5.90;66.80
49385;DHT22;36795;45.028;38.968;2022-12-07T15:16:28;5.90;66.80
49385;DHT22;36795;45.028;38.968;2022-12-07T15:19:17;5.90;66.80
49385;DHT22;36795;45.028;38.968;2022-12-07T15:22:03;6.00;66.90
49385;DHT22;36795;45.028;38.968;2022-12-07T15:24:50;6.00;66.90
49385;DHT22;36795;45.028;38.968;2022-12-07T15:27:36;6.00;66.80
49385;DHT22;36795;45.028;38.968;2022-12-07T15:30:22;6.00;66.70
49385;DHT22;36795;45.028;38.968;2022-12-07T15:33:08;6.00;66.70
49385;DHT22;36795;45.028;38.968;2022-12-07T15:35:54;6.00;66.80
49385;DHT22;36795;45.028;38.968;2022-12-07T15:38:40;6.00;66.80
49385;DHT22;36795;45.028;38.968;2022-12-07T15:41:27;5.90;66.70
49385;DHT22;36795;45.028;38.968;2022-12-07T15:44:13;5.90;66.70
49385;DHT22;36795;45.028;38.968;2022-12-07T15:47:19;6.00;66.60
49385;DHT22;36795;45.028;38.968;2022-12-07T15:50:07;6.00;66.50
49385;DHT22;36795;45.028;38.968;2022-12-07T15:52:54;6.00;66.40
49385;DHT22;36795;45.028;38.968;2022-12-07T15:55:40;6.00;66.80
49385;DHT22;36795;45.028;38.968;2022-12-07T15:58:26;6.00;66.20
49385;DHT22;36795;45.028;38.968;2022-12-07T16:01:14;6.00;66.10
49385;DHT22;36795;45.028;38.968;2022-12-07T16:04:01;6.00;66.10
49385;DHT22;36795;45.028;38.968;2022-12-07T16:06:47;6.00;66.60
49385;DHT22;36795;45.028;38.968;2022-12-07T16:09:33;6.00;66.00
49385;DHT22;36795;45.028;38.968;2022-12-07T16:12:19;6.00;66.10
49385;DHT22;36795;45.028;38.968;2022-12-07T16:15:06;6.10;66.00
49385;DHT22;36795;45.028;38.968;2022-12-07T16:17:52;6.00;65.80
49385;DHT22;36795;45.028;38.968;2022-12-07T16:20:39;6.10;65.70
49385;DHT22;36795;45.028;38.968;2022-12-07T16:23:26;6.10;65.50
49385;DHT22;36795;45.028;38.968;2022-12-07T16:26:18;6.10;65.30
49385;DHT22;36795;45.028;38.968;2022-12-07T16:29:04;6.10;65.10
49385;DHT22;36795;45.028;38.968;2022-12-07T16:31:51;6.10;64.90
49385;DHT22;36795;45.028;38.968;2022-12-07T16:34:39;6.10;64.90
49385;DHT22;36795;45.028;38.968;2022-12-07T16:37:36;6.10;64.80
49385;DHT22;36795;45.028;38.968;2022-12-07T16:40:22;6.00;64.70
49385;DHT22;36795;45.028;38.968;2022-12-07T16:43:09;6.00;64.90
49385;DHT22;36795;45.028;38.968;2022-12-07T16:45:56;6.00;64.90
49385;DHT22;36795;45.028;38.968;2022-12-07T16:48:43;6.00;65.00
49385;DHT22;36795;45.028;38.968;2022-12-07T16:51:29;5.90;65.10
49385;DHT22;36795;45.028;38.968;2022-12-07T16:54:16;5.90;65.20
49385;DHT22;36795;45.028;38.968;2022-12-07T16:57:01;5.80;65.30
49385;DHT22;36795;45.028;38.968;2022-12-07T16:59:48;5.80;65.40
49385;DHT22;36795;45.028;38.968;2022-12-07T17:02:33;5.70;65.40
49385;DHT22;36795;45.028;38.968;2022-12-07T17:05:20;5.70;65.50
49385;DHT22;36795;45.028;38.968;2022-12-07T17:08:06;5.70;65.60
49385;DHT22;36795;45.028;38.968;2022-12-07T17:10:52;5.60;65.70
49385;DHT22;36795;45.028;38.968;2022-12-07T17:13:38;5.60;65.80
49385;DHT22;36795;45.028;38.968;2022-12-07T17:16:43;5.50;65.80
49385;DHT22;36795;45.028;38.968;2022-12-07T17:19:29;5.40;66.00
49385;DHT22;36795;45.028;38.968;2022-12-07T17:22:15;5.40;66.20
49385;DHT22;36795;45.028;38.968;2022-12-07T17:25:02;5.30;66.30
49385;DHT22;36795;45.028;38.968;2022-12-07T17:27:49;5.30;66.40
49385;DHT22;36795;45.028;38.968;2022-12-07T17:30:35;5.20;66.50
49385;DHT22;36795;45.028;38.968;2022-12-07T17:33:22;5.20;66.70
49385;DHT22;36795;45.028;38.968;2022-12-07T17:36:13;5.10;66.70
49385;DHT22;36795;45.028;38.968;2022-12-07T17:38:59;5.10;66.80
49385;DHT22;36795;45.028;38.968;2022-12-07T17:41:47;5.10;66.90
49385;DHT22;36795;45.028;38.968;2022-12-07T17:44:52;5.10;66.90
49385;DHT22;36795;45.028;38.968;2022-12-07T17:47:38;5.00;67.00
49385;DHT22;36795;45.028;38.968;2022-12-07T17:50:25;5.00;67.10
49385;DHT22;36795;45.028;38.968;2022-12-07T17:53:29;4.90;67.10
49385;DHT22;36795;45.028;38.968;2022-12-07T17:56:16;4.90;67.10
49385;DHT22;36795;45.028;38.968;2022-12-07T17:59:02;4.80;67.10
49385;DHT22;36795;45.028;38.968;2022-12-07T18:01:48;4.80;67.20
49385;DHT22;36795;45.028;38.968;2022-12-07T18:04:35;4.70;67.30
49385;DHT22;36795;45.028;38.968;2022-12-07T18:07:20;4.70;67.90
49385;DHT22;36795;45.028;38.968;2022-12-07T18:10:07;4.70;67.60
49385;DHT22;36795;45.028;38.968;2022-12-07T18:12:53;4.60;67.60
49385;DHT22;36795;45.028;38.968;2022-12-07T18:15:59;4.50;67.80
49385;DHT22;36795;45.028;38.968;2022-12-07T18:18:46;4.50;67.90
49385;DHT22;36795;45.028;38.968;2022-12-07T18:21:33;4.50;68.00
49385;DHT22;36795;45.028;38.968;2022-12-07T18:24:19;4.50;68.10
49385;DHT22;36795;45.028;38.968;2022-12-07T18:27:05;4.50;68.00
49385;DHT22;36795;45.028;38.968;2022-12-07T18:29:51;4.40;67.90
49385;DHT22;36795;45.028;38.968;2022-12-07T18:32:38;4.40;67.90
49385;DHT22;36795;45.028;38.968;2022-12-07T18:35:24;4.40;68.00
49385;DHT22;36795;45.028;38.968;2022-12-07T18:38:12;4.40;68.00
49385;DHT22;36795;45.028;38.968;2022-12-07T18:40:58;4.30;68.00
49385;DHT22;36795;45.028;38.968;2022-12-07T18:43:44;4.20;68.00
49385;DHT22;36795;45.028;38.968;2022-12-07T18:46:31;4.20;68.00
49385;DHT22;36795;45.028;38.968;2022-12-07T18:49:17;4.20;68.10
49385;DHT22;36795;45.028;38.968;2022-12-07T18:52:03;4.20;68.10
49385;DHT22;36795;45.028;38.968;2022-12-07T18:54:49;4.20;68.10
49385;DHT22;36795;45.028;38.968;2022-12-07T18:57:35;4.10;68.20
49385;DHT22;36795;45.028;38.968;2022-12-07T19:00:23;4.10;68.30
49385;DHT22;36795;45.028;38.968;2022-12-07T19:03:08;4.10;68.60
49385;DHT22;36795;45.028;38.968;2022-12-07T19:05:54;4.00;68.40
49385;DHT22;36795;45.028;38.968;2022-12-07T19:08:42;4.00;68.50
49385;DHT22;36795;45.028;38.968;2022-12-07T19:11:31;4.00;68.60
49385;DHT22;36795;45.028;38.968;2022-12-07T19:14:36;4.00;68.70
49385;DHT22;36795;45.028;38.968;2022-12-07T19:17:22;3.90;68.80
49385;DHT22;36795;45.028;38.968;2022-12-07T19:20:11;3.90;68.80
49385;DHT22;36795;45.028;38.968;2022-12-07T19:22:57;4.00;68.70
49385;DHT22;36795;45.028;38.968;2022-12-07T19:25:43;4.00;68.50